GVAC/SID METAR and TAF weather

Enter ICAO airport designator
Station Type Date Time Source
GVAC METAR 2018/04/23 11:00 UTC NOAA

GVAC 231100Z 05016KT 9999 FEW014 SCT200 24/14 Q1018 NOSIG


Station Type Date Time Source
GVAC Decoded METAR 2018/04/23 11:00 UTC NOAA

Sal, Cape Verde (GVAC) 16-44N 022-57W 55M
Apr 23, 2018 - 07:00 AM EDT / 2018.04.23 1100 UTC
Wind: from the NE (050 degrees) at 18 MPH (16 KT):0
Visibility: greater than 7 mile(s):0
Sky conditions: partly cloudy
Temperature: 75 F (24 C)
Dew Point: 57 F (14 C)
Relative Humidity: 53%
Pressure (altimeter): 30.06 in. Hg (1018 hPa)
ob: GVAC 231100Z 05016KT 9999 FEW014 SCT200 24/14 Q1018 NOSIG
cycle: 11

Station Type Date Time Source
GVAC TAF 2018/04/23 12:58 UTC NOAA

TAF GVAC 231100Z 2312/2418 04018KT 9999 SCT014
TEMPO 2312/2320 BKN014
BECMG 2321/2323 04014KT
BECMG 2410/2412 04020KT


Example: see airport list